Time;durP1;ratioP1;P1;durP2;ratioP2;P2;SDS_P1;SDS_P2;PMS_P1;PMS_P2;Temp;Humidity;BMP_temperature;BMP_pressure;BME280_temperature;BME280_humidity;BME280_pressure;Samples;Min_cycle;Max_cycle;Signal;HPM_P1;HPM_P2
2023/04/27 00:01:34;;;;;;;13.02;6.78;;;6.30;99.90;;;;;;5103506;28;20239;-80
2023/04/27 00:04:02;;;;;;;11.15;6.63;;;6.30;99.90;;;;;;5111768;28;20634;-79
2023/04/27 00:06:28;;;;;;;11.93;6.80;;;6.30;99.90;;;;;;5095237;28;20206;-79
2023/04/27 00:08:54;;;;;;;11.02;6.75;;;6.30;99.90;;;;;;5105203;28;20639;-79
2023/04/27 00:11:21;;;;;;;12.05;6.78;;;6.30;99.90;;;;;;5094853;28;20285;-81
2023/04/27 00:13:47;;;;;;;9.73;6.28;;;6.30;99.90;;;;;;5102291;28;20185;-80
2023/04/27 00:16:13;;;;;;;13.80;6.57;;;6.30;99.90;;;;;;5096198;28;20540;-80
2023/04/27 00:18:38;;;;;;;11.70;5.68;;;6.30;99.90;;;;;;5100645;28;20185;-79
2023/04/27 00:21:04;;;;;;;9.85;5.70;;;6.20;99.90;;;;;;5061697;28;20635;-80
2023/04/27 00:23:33;;;;;;;9.48;5.85;;;6.20;99.90;;;;;;5105123;28;20181;-80
2023/04/27 00:25:59;;;;;;;11.38;5.32;;;6.20;99.90;;;;;;5116425;28;20218;-80
2023/04/27 00:28:25;;;;;;;12.20;5.40;;;6.10;99.90;;;;;;5114245;28;20634;-80
2023/04/27 00:30:53;;;;;;;9.88;4.85;;;6.00;99.90;;;;;;5114893;28;20242;-80
2023/04/27 00:33:19;;;;;;;10.27;4.88;;;6.00;99.90;;;;;;5079424;28;20195;-80
2023/04/27 00:35:46;;;;;;;8.52;4.40;;;6.00;99.90;;;;;;5114164;28;20193;-80
2023/04/27 00:38:13;;;;;;;8.70;4.30;;;6.10;99.90;;;;;;5113469;28;20185;-80
2023/04/27 00:40:39;;;;;;;7.57;4.38;;;6.10;99.90;;;;;;5116070;28;20184;-80
2023/04/27 00:43:05;;;;;;;6.15;4.57;;;6.00;99.90;;;;;;5112993;28;20578;-80
2023/04/27 00:45:31;;;;;;;9.82;4.95;;;6.00;99.90;;;;;;5114340;28;20192;-80
2023/04/27 00:47:58;;;;;;;7.43;4.72;;;6.10;99.90;;;;;;5097045;28;20216;-80
2023/04/27 00:50:30;;;;;;;6.93;4.70;;;6.00;99.90;;;;;;5098023;28;20576;-80
2023/04/27 00:52:56;;;;;;;8.93;4.60;;;6.10;99.90;;;;;;5110434;28;20192;-80
2023/04/27 00:55:23;;;;;;;6.88;4.30;;;6.10;99.90;;;;;;5095843;28;20269;-80
2023/04/27 00:57:48;;;;;;;9.38;4.97;;;6.20;99.90;;;;;;5111741;28;21299;-80
2023/04/27 01:00:15;;;;;;;6.47;4.60;;;6.20;99.90;;;;;;5077115;28;20186;-81
2023/04/27 01:02:41;;;;;;;8.52;4.60;;;6.20;99.90;;;;;;5077181;28;20194;-80
2023/04/27 01:05:08;;;;;;;7.60;4.28;;;6.20;99.90;;;;;;5095396;28;20177;-80
2023/04/27 01:07:38;;;;;;;8.60;6.00;;;6.20;99.90;;;;;;5083133;28;20298;-80
2023/04/27 01:10:06;;;;;;;17.25;9.43;;;6.20;99.90;;;;;;5097560;28;20243;-80
2023/04/27 01:12:32;;;;;;;16.17;8.65;;;6.20;99.90;;;;;;5114161;28;20268;-81
2023/04/27 01:14:57;;;;;;;14.35;8.70;;;6.20;99.90;;;;;;5095458;28;20185;-80
2023/04/27 01:17:23;;;;;;;14.90;8.68;;;6.20;99.90;;;;;;5104129;28;20188;-80
2023/04/27 01:19:50;;;;;;;16.10;8.95;;;6.20;99.90;;;;;;5109291;28;20357;-80
2023/04/27 01:22:16;;;;;;;13.90;8.35;;;6.20;99.90;;;;;;5096240;28;20193;-80
2023/04/27 01:24:43;;;;;;;11.63;8.27;;;6.20;99.90;;;;;;5113197;28;20188;-80
2023/04/27 01:27:08;;;;;;;12.00;7.97;;;6.20;99.90;;;;;;5114188;28;20203;-79
2023/04/27 01:29:36;;;;;;;11.73;6.85;;;6.20;99.90;;;;;;5079070;28;20193;-79
2023/04/27 01:32:01;;;;;;;12.20;6.88;;;6.20;99.90;;;;;;5113715;28;20173;-83
2023/04/27 01:34:27;;;;;;;11.60;6.03;;;6.20;99.90;;;;;;5079568;28;20713;-80
2023/04/27 01:36:53;;;;;;;8.85;5.72;;;6.20;99.90;;;;;;5115297;28;20177;-80
2023/04/27 01:39:20;;;;;;;13.27;5.13;;;6.20;99.90;;;;;;5101036;28;20658;-80
2023/04/27 01:41:46;;;;;;;9.57;5.72;;;6.20;99.90;;;;;;5076481;28;20281;-78
2023/04/27 01:44:11;;;;;;;11.65;6.07;;;6.10;99.90;;;;;;5099158;28;22027;-80
2023/04/27 01:46:37;;;;;;;9.77;5.78;;;6.20;99.90;;;;;;5113769;28;20189;-80
2023/04/27 01:49:03;;;;;;;8.15;5.72;;;6.20;99.90;;;;;;5109048;28;20288;-80
2023/04/27 01:51:29;;;;;;;9.57;6.57;;;6.10;99.90;;;;;;5068463;28;20203;-79
2023/04/27 01:53:55;;;;;;;16.23;9.40;;;6.10;99.90;;;;;;5092681;28;20194;-79
2023/04/27 01:56:21;;;;;;;18.95;10.55;;;6.10;99.90;;;;;;5094487;28;20254;-81
2023/04/27 01:58:47;;;;;;;22.98;11.52;;;6.00;99.90;;;;;;5085215;28;20186;-81
2023/04/27 02:01:12;;;;;;;18.05;11.38;;;6.00;99.90;;;;;;5106610;28;20207;-81
2023/04/27 02:03:38;;;;;;;16.63;10.27;;;6.00;99.90;;;;;;5104560;28;20205;-80
2023/04/27 02:06:04;;;;;;;18.80;10.82;;;5.90;99.90;;;;;;5109015;28;20182;-80
2023/04/27 02:08:30;;;;;;;18.48;10.98;;;5.90;99.90;;;;;;5112449;28;20192;-80
2023/04/27 02:10:56;;;;;;;22.02;12.57;;;5.90;99.90;;;;;;5110822;28;20212;-79
2023/04/27 02:13:22;;;;;;;18.95;12.00;;;5.90;99.90;;;;;;5101471;28;20193;-81
2023/04/27 02:15:48;;;;;;;25.05;12.40;;;5.80;99.90;;;;;;5075465;28;20186;-80
2023/04/27 02:18:14;;;;;;;16.25;10.45;;;5.80;99.90;;;;;;5080539;28;20270;-80
2023/04/27 02:20:40;;;;;;;16.38;10.15;;;5.80;99.90;;;;;;5095463;28;20592;-80
2023/04/27 02:23:06;;;;;;;19.35;9.95;;;5.80;99.90;;;;;;5110982;28;20207;-80
2023/04/27 02:25:35;;;;;;;18.45;10.05;;;5.80;99.90;;;;;;5092953;28;20186;-80
2023/04/27 02:28:00;;;;;;;17.83;10.05;;;5.80;99.90;;;;;;5102022;28;20242;-80
2023/04/27 02:30:27;;;;;;;15.63;9.90;;;5.80;99.90;;;;;;5091665;28;20201;-80
2023/04/27 02:32:59;;;;;;;17.02;10.23;;;5.70;99.90;;;;;;5075768;28;20216;-80
2023/04/27 02:35:24;;;;;;;15.73;10.55;;;5.70;99.90;;;;;;5094801;28;20708;-81
2023/04/27 02:37:50;;;;;;;16.80;10.88;;;5.70;99.90;;;;;;5111772;28;20193;-80
2023/04/27 02:40:16;;;;;;;20.45;11.27;;;5.70;99.90;;;;;;5112837;28;20185;-80
2023/04/27 02:42:42;;;;;;;20.33;11.00;;;5.70;99.90;;;;;;5109378;28;20308;-80
2023/04/27 02:45:10;;;;;;;23.33;10.20;;;5.70;99.90;;;;;;5075772;28;20231;-79
2023/04/27 02:47:36;;;;;;;18.02;10.02;;;5.70;99.90;;;;;;5106274;28;20200;-80
2023/04/27 02:50:02;;;;;;;17.02;9.30;;;5.70;99.90;;;;;;5100825;28;20288;-80
2023/04/27 02:52:32;;;;;;;15.80;8.75;;;5.60;99.90;;;;;;5095587;28;20205;-83
2023/04/27 02:54:58;;;;;;;15.40;7.65;;;5.60;99.90;;;;;;5092104;28;20598;-80
2023/04/27 02:57:24;;;;;;;16.48;7.10;;;5.60;99.90;;;;;;5102652;28;20268;-79
2023/04/27 02:59:49;;;;;;;11.57;7.43;;;5.60;99.90;;;;;;5102115;28;20182;-79
2023/04/27 03:02:15;;;;;;;16.77;8.93;;;5.60;99.90;;;;;;5087453;28;20238;-80
2023/04/27 03:04:42;;;;;;;13.52;8.23;;;5.60;99.90;;;;;;5077838;28;20185;-81
2023/04/27 03:07:08;;;;;;;18.85;9.27;;;5.60;99.90;;;;;;5109030;28;20186;-79
2023/04/27 03:09:34;;;;;;;15.63;9.10;;;5.60;99.90;;;;;;5091762;28;20185;-80
2023/04/27 03:12:00;;;;;;;19.27;9.73;;;5.60;99.90;;;;;;5113107;28;20186;-80
2023/04/27 03:14:26;;;;;;;22.63;10.13;;;5.60;99.90;;;;;;5091101;28;20251;-79
2023/04/27 03:16:52;;;;;;;19.50;10.20;;;5.50;99.90;;;;;;5107468;28;20181;-81
2023/04/27 03:19:17;;;;;;;16.60;9.68;;;5.50;99.90;;;;;;5110635;28;20185;-79
2023/04/27 03:21:43;;;;;;;15.23;8.40;;;5.50;99.90;;;;;;5095030;28;20617;-80
2023/04/27 03:24:09;;;;;;;17.02;8.30;;;5.50;99.90;;;;;;5092374;28;20191;-80
2023/04/27 03:26:35;;;;;;;21.50;8.60;;;5.50;99.90;;;;;;5089259;28;20181;-79
2023/04/27 03:29:03;;;;;;;13.95;7.82;;;5.50;99.90;;;;;;5103578;28;20268;-80
2023/04/27 03:31:28;;;;;;;16.40;9.00;;;5.50;99.90;;;;;;5109750;28;20685;-80
2023/04/27 03:33:54;;;;;;;17.17;8.27;;;5.40;99.90;;;;;;5100465;28;20720;-80
2023/04/27 03:36:21;;;;;;;16.10;8.38;;;5.50;99.90;;;;;;5108380;28;20230;-80
2023/04/27 03:38:47;;;;;;;15.45;7.70;;;5.40;99.90;;;;;;5101480;28;20194;-80
2023/04/27 03:41:13;;;;;;;16.27;8.43;;;5.40;99.90;;;;;;5057669;28;20177;-80
2023/04/27 03:43:39;;;;;;;17.13;9.00;;;5.40;99.90;;;;;;5100021;28;20236;-80
2023/04/27 03:46:05;;;;;;;16.90;8.57;;;5.40;99.90;;;;;;5110890;28;20181;-81
2023/04/27 03:48:30;;;;;;;14.93;8.57;;;5.40;99.90;;;;;;5109349;28;20188;-80
2023/04/27 03:50:56;;;;;;;13.02;8.18;;;5.30;99.90;;;;;;5111494;28;20705;-80
2023/04/27 03:53:22;;;;;;;13.98;8.40;;;5.30;99.90;;;;;;5089766;28;20210;-80
2023/04/27 03:55:49;;;;;;;11.60;7.93;;;5.30;99.90;;;;;;5090946;28;20665;-81
2023/04/27 03:58:16;;;;;;;14.73;8.60;;;5.20;99.90;;;;;;5096963;28;20321;-80
2023/04/27 04:01:03;;;;;;;15.23;8.63;;;5.20;99.90;;;;;;5111459;28;20184;-80
2023/04/27 04:03:29;;;;;;;14.15;8.00;;;5.20;99.90;;;;;;5081028;28;20181;-80
2023/04/27 04:05:55;;;;;;;14.98;8.70;;;5.10;99.90;;;;;;5109103;28;20262;-81
2023/04/27 04:08:21;;;;;;;13.13;8.32;;;5.10;99.90;;;;;;5109764;28;20561;-78
2023/04/27 04:10:47;;;;;;;14.05;9.15;;;5.10;99.90;;;;;;5106616;28;20210;-78
2023/04/27 04:13:13;;;;;;;14.48;8.18;;;5.10;99.90;;;;;;5096812;28;20626;-79
2023/04/27 04:15:39;;;;;;;15.65;8.82;;;5.10;99.90;;;;;;5060981;28;20193;-79
2023/04/27 04:18:05;;;;;;;14.52;8.45;;;5.00;99.90;;;;;;5109358;28;20177;-79
2023/04/27 04:20:33;;;;;;;13.55;8.85;;;5.00;99.90;;;;;;5101835;28;20208;-79
2023/04/27 04:22:59;;;;;;;16.05;8.43;;;5.00;99.90;;;;;;5076968;28;20269;-79
2023/04/27 04:25:25;;;;;;;14.13;8.23;;;5.00;99.90;;;;;;5094519;28;20264;-79
2023/04/27 04:27:51;;;;;;;13.88;8.35;;;5.00;99.90;;;;;;5078473;28;21536;-78
2023/04/27 04:30:18;;;;;;;14.05;8.63;;;5.00;99.90;;;;;;5090437;28;20217;-78
2023/04/27 04:32:44;;;;;;;13.98;8.35;;;5.00;99.90;;;;;;5091408;28;20185;-79
2023/04/27 04:35:10;;;;;;;14.02;8.77;;;5.00;99.90;;;;;;5108880;28;20181;-79
2023/04/27 04:37:36;;;;;;;16.48;8.20;;;5.00;99.90;;;;;;5108263;28;20181;-79
2023/04/27 04:40:07;;;;;;;15.75;8.45;;;5.00;99.90;;;;;;5072516;28;20182;-79
2023/04/27 04:42:36;;;;;;;15.52;8.70;;;5.00;99.90;;;;;;5107875;28;20174;-79
2023/04/27 04:45:02;;;;;;;14.65;8.50;;;5.00;99.90;;;;;;5108595;28;20268;-82
2023/04/27 04:47:30;;;;;;;14.38;8.40;;;5.00;99.90;;;;;;5094484;28;20537;-83
2023/04/27 04:49:57;;;;;;;13.00;8.13;;;5.10;99.90;;;;;;5104069;28;20262;-80
2023/04/27 04:52:23;;;;;;;13.55;8.27;;;5.10;99.90;;;;;;5097552;28;20185;-80
2023/04/27 04:54:52;;;;;;;13.45;7.90;;;5.10;99.90;;;;;;5095928;28;20185;-79
2023/04/27 04:57:18;;;;;;;12.93;7.60;;;5.10;99.90;;;;;;5114366;28;20235;-79
2023/04/27 04:59:44;;;;;;;11.43;7.13;;;5.10;99.90;;;;;;5095135;28;20669;-79
2023/04/27 05:02:10;;;;;;;12.73;7.80;;;5.20;99.90;;;;;;5108848;28;20169;-78
2023/04/27 05:04:36;;;;;;;13.88;7.50;;;5.20;99.90;;;;;;5097888;28;20186;-78
2023/04/27 05:07:03;;;;;;;14.50;7.47;;;5.20;99.90;;;;;;5113978;28;20189;-79
2023/04/27 05:09:29;;;;;;;13.45;7.63;;;5.30;99.90;;;;;;5099048;28;20190;-77
2023/04/27 05:11:55;;;;;;;11.38;7.32;;;5.30;99.90;;;;;;5086701;28;20218;-78
2023/04/27 05:14:20;;;;;;;11.93;7.60;;;5.40;99.90;;;;;;5112785;28;20189;-78
2023/04/27 05:16:48;;;;;;;10.25;7.32;;;5.40;99.90;;;;;;5114342;28;20204;-78
2023/04/27 05:19:17;;;;;;;13.60;7.25;;;5.40;99.90;;;;;;5112677;28;20267;-78
2023/04/27 05:21:46;;;;;;;10.52;6.97;;;5.50;99.90;;;;;;5112077;28;20197;-78
2023/04/27 05:24:12;;;;;;;12.88;7.13;;;5.50;99.90;;;;;;5112411;27;20212;-78
2023/04/27 05:26:37;;;;;;;10.32;7.43;;;5.50;99.90;;;;;;5114129;28;20181;-78
2023/04/27 05:29:03;;;;;;;10.48;6.95;;;5.50;99.90;;;;;;5113323;28;20184;-76
2023/04/27 05:31:29;;;;;;;15.10;7.50;;;5.60;99.90;;;;;;5112744;28;20569;-77
2023/04/27 05:33:55;;;;;;;14.07;6.68;;;5.60;99.90;;;;;;5094132;28;20181;-79
2023/04/27 05:36:20;;;;;;;11.63;7.05;;;5.80;99.90;;;;;;5112007;28;20220;-77
2023/04/27 05:38:46;;;;;;;12.90;6.47;;;5.80;99.90;;;;;;5095478;28;20216;-77
2023/04/27 05:41:12;;;;;;;10.73;6.55;;;5.80;99.90;;;;;;5114902;28;20177;-78
2023/04/27 05:43:38;;;;;;;12.50;7.00;;;5.90;99.90;;;;;;5111655;28;20253;-78
2023/04/27 05:46:04;;;;;;;14.02;5.80;;;5.90;99.90;;;;;;5113246;28;20268;-79
2023/04/27 05:48:30;;;;;;;10.85;6.63;;;5.90;99.90;;;;;;5104182;28;20197;-79
2023/04/27 05:51:02;;;;;;;9.10;5.70;;;6.00;99.90;;;;;;5093973;28;20205;-79
2023/04/27 05:53:29;;;;;;;9.50;6.15;;;6.00;99.90;;;;;;5100132;28;20200;-79
2023/04/27 05:55:59;;;;;;;13.00;6.28;;;6.00;99.90;;;;;;5101969;28;20181;-79
2023/04/27 05:58:26;;;;;;;14.55;6.20;;;6.10;99.90;;;;;;5110963;28;20181;-80
2023/04/27 06:00:55;;;;;;;9.10;5.82;;;6.10;99.90;;;;;;5113782;28;20165;-80
2023/04/27 06:03:21;;;;;;;11.32;6.07;;;6.10;99.90;;;;;;5112465;28;20181;-80
2023/04/27 06:05:52;;;;;;;10.75;5.75;;;6.20;99.90;;;;;;5114121;27;20185;-79
2023/04/27 06:08:18;;;;;;;8.10;5.90;;;6.20;99.90;;;;;;5109108;28;20211;-79
2023/04/27 06:10:43;;;;;;;9.05;5.32;;;6.30;99.90;;;;;;5111728;28;20232;-81
2023/04/27 06:13:09;;;;;;;10.27;5.80;;;6.30;99.90;;;;;;5094613;28;20676;-79
2023/04/27 06:15:35;;;;;;;11.55;5.43;;;6.40;99.90;;;;;;5078271;28;20183;-78
2023/04/27 06:18:01;;;;;;;9.93;5.25;;;6.40;99.90;;;;;;5091891;28;20767;-78
2023/04/27 06:20:26;;;;;;;8.57;5.30;;;6.50;99.90;;;;;;5104370;28;20212;-80
2023/04/27 06:22:52;;;;;;;9.40;5.10;;;6.50;99.90;;;;;;5112185;28;20257;-79
2023/04/27 06:25:18;;;;;;;12.52;4.68;;;6.60;99.90;;;;;;5113713;28;20634;-79
2023/04/27 06:27:44;;;;;;;8.15;4.50;;;6.70;99.90;;;;;;5111032;28;20234;-79
2023/04/27 06:30:10;;;;;;;15.23;5.15;;;6.80;99.90;;;;;;5078590;28;20717;-78
2023/04/27 06:32:36;;;;;;;9.30;4.80;;;6.80;99.90;;;;;;5113918;28;20280;-79
2023/04/27 06:35:02;;;;;;;12.68;4.95;;;6.90;99.90;;;;;;5112500;28;20808;-80
2023/04/27 06:37:27;;;;;;;7.38;4.85;;;6.90;99.90;;;;;;5112155;28;20665;-80
2023/04/27 06:39:53;;;;;;;8.32;4.38;;;7.00;99.90;;;;;;5091231;28;20181;-79
2023/04/27 06:42:19;;;;;;;14.55;4.60;;;7.10;99.90;;;;;;5093078;28;20181;-79
2023/04/27 06:44:45;;;;;;;9.15;4.45;;;7.20;99.90;;;;;;5103197;28;20228;-79
2023/04/27 06:47:10;;;;;;;8.77;4.03;;;7.30;99.90;;;;;;5109736;28;20181;-79
2023/04/27 06:49:36;;;;;;;5.90;3.80;;;7.40;99.90;;;;;;5116991;27;20220;-80
2023/04/27 06:52:02;;;;;;;4.82;3.63;;;7.50;99.90;;;;;;5108215;28;20228;-80
2023/04/27 06:54:28;;;;;;;7.30;3.63;;;7.60;99.90;;;;;;5101087;28;20213;-81
2023/04/27 06:56:54;;;;;;;6.72;3.72;;;7.70;99.90;;;;;;5096151;28;20209;-81
2023/04/27 06:59:20;;;;;;;5.35;3.28;;;7.80;99.90;;;;;;5110415;28;20181;-78
2023/04/27 07:01:46;;;;;;;6.80;3.08;;;7.90;99.90;;;;;;5094237;28;20182;-79
2023/04/27 07:04:11;;;;;;;8.80;3.38;;;8.10;99.90;;;;;;5111696;28;20196;-78
2023/04/27 07:06:37;;;;;;;11.80;3.72;;;8.20;99.90;;;;;;5121072;27;20183;-78
2023/04/27 07:09:04;;;;;;;8.63;3.28;;;8.20;99.90;;;;;;5110858;28;20184;-79
2023/04/27 07:11:30;;;;;;;5.20;3.10;;;8.30;99.90;;;;;;5113171;28;20257;-78
2023/04/27 07:13:56;;;;;;;3.30;2.85;;;8.50;99.90;;;;;;5113012;28;20182;-79
2023/04/27 07:16:22;;;;;;;7.72;2.95;;;8.50;99.90;;;;;;5111753;28;20706;-79
2023/04/27 07:18:48;;;;;;;12.95;3.20;;;8.70;99.90;;;;;;5093282;28;20731;-80
2023/04/27 07:21:13;;;;;;;5.80;3.08;;;8.80;99.90;;;;;;5111564;28;20186;-81
2023/04/27 07:23:42;;;;;;;8.27;2.92;;;8.80;99.90;;;;;;5112512;28;20196;-80
2023/04/27 07:26:08;;;;;;;8.57;2.72;;;9.00;99.90;;;;;;5113034;28;20181;-80
2023/04/27 07:28:34;;;;;;;5.82;3.00;;;9.10;99.90;;;;;;5109961;28;20260;-80
2023/04/27 07:31:03;;;;;;;4.97;2.40;;;9.20;99.90;;;;;;5109400;28;20760;-78
2023/04/27 07:33:29;;;;;;;6.95;2.70;;;9.40;99.90;;;;;;5104614;28;20193;-79
2023/04/27 07:35:55;;;;;;;4.68;2.40;;;9.60;99.90;;;;;;5102478;28;20185;-79
2023/04/27 07:38:22;;;;;;;6.20;2.38;;;9.80;99.90;;;;;;5091243;28;20182;-79
2023/04/27 07:40:48;;;;;;;5.32;2.50;;;9.90;99.90;;;;;;5105817;28;20196;-79
2023/04/27 07:43:14;;;;;;;6.13;3.10;;;10.10;99.90;;;;;;5111105;28;20249;-80
2023/04/27 07:45:41;;;;;;;8.38;2.90;;;10.20;99.90;;;;;;5111157;28;20179;-80
2023/04/27 07:48:07;;;;;;;4.57;2.25;;;10.30;99.90;;;;;;5090861;28;20292;-80
2023/04/27 07:50:33;;;;;;;8.00;2.83;;;10.40;99.90;;;;;;5066654;28;20338;-79
2023/04/27 07:52:59;;;;;;;5.63;2.30;;;10.50;99.90;;;;;;5112645;28;20272;-80
2023/04/27 07:55:25;;;;;;;4.80;2.10;;;10.60;99.90;;;;;;5112609;28;20188;-79
2023/04/27 07:58:01;;;;;;;4.28;2.40;;;10.70;99.90;;;;;;5111265;28;20184;-79
2023/04/27 08:00:27;;;;;;;3.60;2.10;;;10.90;99.90;;;;;;5112227;28;20176;-79
2023/04/27 08:02:53;;;;;;;4.45;2.35;;;11.00;99.90;;;;;;5093732;28;20191;-79
2023/04/27 08:05:19;;;;;;;5.10;2.42;;;11.10;99.90;;;;;;5112486;28;20173;-84
2023/04/27 08:07:45;;;;;;;5.57;2.90;;;11.20;99.90;;;;;;5089810;28;20677;-78
2023/04/27 08:10:12;;;;;;;3.05;2.40;;;11.30;99.90;;;;;;5090969;28;20202;-79
2023/04/27 08:12:38;;;;;;;7.10;3.00;;;11.40;99.90;;;;;;5111542;28;21020;-79
2023/04/27 08:15:07;;;;;;;7.70;2.60;;;11.60;99.90;;;;;;5110277;28;20213;-79
2023/04/27 08:17:33;;;;;;;6.75;2.30;;;11.80;99.90;;;;;;5114003;28;20245;-81
2023/04/27 08:19:59;;;;;;;6.85;2.63;;;11.90;99.50;;;;;;5109491;28;20264;-80
2023/04/27 08:22:25;;;;;;;6.35;2.80;;;12.10;98.80;;;;;;5110150;28;20284;-79
2023/04/27 08:24:51;;;;;;;6.28;2.67;;;12.20;98.10;;;;;;5076484;28;20193;-79
2023/04/27 08:27:17;;;;;;;4.38;2.63;;;12.30;97.20;;;;;;5098347;28;20184;-79
2023/04/27 08:29:46;;;;;;;5.43;2.80;;;12.40;96.90;;;;;;5113331;28;20184;-79
2023/04/27 08:32:12;;;;;;;7.80;2.53;;;12.50;96.20;;;;;;5114099;28;20189;-79
2023/04/27 08:34:38;;;;;;;5.20;2.50;;;12.60;95.90;;;;;;5113640;28;20193;-79
2023/04/27 08:37:04;;;;;;;5.90;2.83;;;12.60;95.40;;;;;;5113812;28;20504;-79
2023/04/27 08:39:32;;;;;;;7.70;2.67;;;12.70;94.80;;;;;;5096439;28;20189;-79
2023/04/27 08:41:58;;;;;;;4.50;2.25;;;12.80;94.10;;;;;;5113406;28;20205;-79
2023/04/27 08:44:24;;;;;;;5.43;2.47;;;12.90;93.60;;;;;;5096387;28;20667;-79
2023/04/27 08:46:50;;;;;;;4.03;2.15;;;12.90;93.00;;;;;;5093493;28;20193;-79
2023/04/27 08:49:16;;;;;;;6.68;2.70;;;12.90;92.50;;;;;;5093165;28;20186;-79
2023/04/27 08:51:44;;;;;;;3.70;2.40;;;13.10;91.80;;;;;;5104867;28;20583;-79
2023/04/27 08:54:10;;;;;;;10.77;2.70;;;13.20;91.20;;;;;;5111103;28;20185;-79
2023/04/27 08:56:36;;;;;;;7.53;2.78;;;13.10;90.80;;;;;;5112633;28;20184;-79
2023/04/27 08:59:03;;;;;;;5.80;2.45;;;13.10;90.20;;;;;;5113394;28;20189;-79
2023/04/27 09:01:31;;;;;;;7.00;3.10;;;13.10;89.10;;;;;;5111275;28;20215;-78
2023/04/27 09:04:06;;;;;;;6.03;2.60;;;13.20;87.40;;;;;;5112427;28;20189;-78
2023/04/27 09:06:38;;;;;;;4.70;2.97;;;13.20;87.40;;;;;;5115650;28;20253;-80
2023/04/27 09:09:04;;;;;;;5.40;2.75;;;13.30;86.80;;;;;;5100009;28;20285;-80
2023/04/27 09:11:32;;;;;;;5.90;2.72;;;13.40;85.60;;;;;;5097104;28;20295;-78
2023/04/27 09:13:59;;;;;;;8.32;3.28;;;13.50;84.50;;;;;;5110503;28;20710;-78
2023/04/27 09:16:27;;;;;;;4.30;2.50;;;13.60;83.90;;;;;;5114329;28;20634;-79
2023/04/27 09:18:55;;;;;;;10.00;3.22;;;13.80;83.20;;;;;;5108960;28;20173;-79
2023/04/27 09:21:22;;;;;;;5.43;3.22;;;14.00;82.10;;;;;;5096924;28;20655;-79
2023/04/27 09:23:48;;;;;;;6.93;3.05;;;14.10;81.10;;;;;;5105551;28;20181;-79
2023/04/27 09:26:26;;;;;;;10.10;3.53;;;14.20;79.50;;;;;;5079326;28;20197;-81
2023/04/27 09:28:55;;;;;;;5.65;3.08;;;14.40;79.10;;;;;;5103530;28;20258;-80
2023/04/27 09:31:21;;;;;;;7.88;3.20;;;14.50;78.10;;;;;;5094227;28;20198;-79
2023/04/27 09:33:54;;;;;;;7.60;3.28;;;14.60;77.60;;;;;;5095855;28;20193;-80
2023/04/27 09:36:21;;;;;;;6.68;3.13;;;14.70;76.40;;;;;;5114897;28;20195;-79
2023/04/27 09:38:47;;;;;;;5.28;3.20;;;14.70;76.10;;;;;;5104315;28;20189;-80
2023/04/27 09:41:13;;;;;;;6.53;3.60;;;14.70;75.50;;;;;;5112882;28;20193;-80
2023/04/27 09:43:43;;;;;;;10.50;4.13;;;14.80;75.30;;;;;;5109835;28;20237;-79
2023/04/27 09:46:11;;;;;;;7.13;3.90;;;14.90;75.00;;;;;;5113190;28;20220;-79
2023/04/27 09:48:38;;;;;;;6.25;3.85;;;14.90;74.50;;;;;;5112959;28;20222;-80
2023/04/27 09:51:04;;;;;;;7.38;3.92;;;15.00;73.30;;;;;;5110405;28;20213;-79
2023/04/27 09:53:39;;;;;;;9.50;3.60;;;15.00;72.70;;;;;;5112054;28;20272;-83
2023/04/27 09:56:37;;;;;;;7.97;3.63;;;15.00;72.20;;;;;;5112174;28;20733;-78
2023/04/27 09:59:21;;;;;;;10.38;4.20;;;14.90;71.40;;;;;;5113787;28;20177;-79
2023/04/27 10:01:51;;;;;;;11.15;4.68;;;14.80;71.50;;;;;;5108242;28;20268;-80
2023/04/27 10:04:44;;;;;;;10.65;4.80;;;14.70;71.60;;;;;;5111735;28;20614;-82
2023/04/27 10:07:13;;;;;;;8.75;4.18;;;14.60;71.50;;;;;;5111517;28;20220;-81
2023/04/27 10:09:46;;;;;;;9.30;4.30;;;14.50;71.80;;;;;;5095065;28;20174;-79
2023/04/27 10:12:25;;;;;;;7.97;4.00;;;14.40;72.40;;;;;;5073102;28;20250;-79
2023/04/27 10:14:54;;;;;;;9.13;4.43;;;14.30;72.20;;;;;;5109039;28;20181;-78
2023/04/27 10:17:35;;;;;;;8.27;4.70;;;14.20;72.40;;;;;;5103651;28;20173;-78
2023/04/27 10:20:07;;;;;;;11.43;5.18;;;14.10;73.20;;;;;;5101715;28;20189;-79
2023/04/27 10:22:44;;;;;;;9.80;4.72;;;14.00;73.80;;;;;;5110477;28;20184;-79
2023/04/27 10:25:27;;;;;;;11.35;4.55;;;14.00;73.90;;;;;;5094375;28;20291;-78
2023/04/27 10:28:00;;;;;;;8.55;4.35;;;13.90;74.00;;;;;;5109232;28;20181;-78
2023/04/27 10:30:35;;;;;;;10.05;4.70;;;13.80;74.00;;;;;;5114027;28;20254;-78
2023/04/27 10:33:08;;;;;;;8.95;4.55;;;13.80;74.20;;;;;;5111436;28;20243;-79
2023/04/27 10:35:36;;;;;;;7.25;4.38;;;13.70;74.00;;;;;;5112678;28;20179;-78
2023/04/27 10:38:16;;;;;;;10.82;5.35;;;13.60;74.30;;;;;;5108822;28;20238;-79
2023/04/27 10:40:44;;;;;;;9.07;4.72;;;13.50;74.50;;;;;;5093081;28;20181;-79
2023/04/27 10:43:12;;;;;;;11.80;5.60;;;13.40;74.60;;;;;;5097816;28;20255;-78
2023/04/27 10:45:39;;;;;;;10.93;5.07;;;13.40;74.70;;;;;;5113588;28;20177;-79
2023/04/27 10:48:06;;;;;;;7.53;4.85;;;13.30;75.50;;;;;;5111924;28;20165;-79
2023/04/27 10:50:32;;;;;;;9.63;5.00;;;13.30;75.70;;;;;;5110040;28;20208;-78
2023/04/27 10:53:03;;;;;;;10.35;4.90;;;13.40;75.80;;;;;;5109665;28;20185;-80
2023/04/27 10:55:30;;;;;;;8.40;4.93;;;13.40;75.80;;;;;;5113702;28;20181;-78
2023/04/27 10:57:56;;;;;;;11.38;5.20;;;13.50;75.70;;;;;;5110935;28;20303;-79
2023/04/27 11:00:26;;;;;;;7.40;4.45;;;13.50;75.50;;;;;;5101984;28;20230;-79
2023/04/27 11:02:56;;;;;;;9.05;4.70;;;13.60;75.20;;;;;;5112691;28;20256;-79
2023/04/27 11:05:27;;;;;;;9.98;5.57;;;13.80;75.30;;;;;;5112972;27;20185;-79
2023/04/27 11:08:04;;;;;;;7.93;4.70;;;13.90;74.60;;;;;;5112070;28;20181;-78
2023/04/27 11:10:30;;;;;;;15.13;5.20;;;14.00;73.90;;;;;;5095051;28;20200;-79
2023/04/27 11:12:56;;;;;;;9.40;4.95;;;14.10;73.50;;;;;;5113124;28;20247;-77
2023/04/27 11:15:22;;;;;;;9.30;4.75;;;14.20;73.40;;;;;;5090630;28;20327;-78
2023/04/27 11:17:48;;;;;;;10.63;4.85;;;14.20;73.00;;;;;;5091528;28;20178;-78
2023/04/27 11:20:15;;;;;;;10.50;5.05;;;14.30;72.60;;;;;;5095191;27;20196;-81
2023/04/27 11:22:45;;;;;;;8.70;5.05;;;14.30;72.40;;;;;;5113185;28;20189;-79
2023/04/27 11:25:11;;;;;;;9.75;4.90;;;14.30;72.20;;;;;;5099044;28;20242;-79
2023/04/27 11:27:38;;;;;;;8.02;4.80;;;14.30;72.30;;;;;;5092995;28;20666;-79
2023/04/27 11:30:06;;;;;;;14.32;5.70;;;14.30;72.30;;;;;;5091112;28;20182;-79
2023/04/27 11:32:32;;;;;;;6.95;5.05;;;14.30;71.90;;;;;;5090663;28;20189;-79
2023/04/27 11:34:58;;;;;;;6.78;4.97;;;14.20;71.70;;;;;;5107374;28;20241;-80
2023/04/27 11:37:25;;;;;;;9.52;5.03;;;14.20;71.60;;;;;;5112017;28;20560;-79
2023/04/27 11:39:56;;;;;;;6.47;4.82;;;14.10;72.00;;;;;;5113071;28;20266;-80
2023/04/27 11:42:30;;;;;;;8.55;4.75;;;14.00;72.40;;;;;;5111734;28;20189;-78
2023/04/27 11:44:57;;;;;;;7.07;4.72;;;14.00;73.10;;;;;;5110551;28;20221;-83
2023/04/27 11:47:26;;;;;;;9.93;4.78;;;14.00;73.70;;;;;;5095182;28;20273;-78
2023/04/27 11:49:55;;;;;;;12.30;5.68;;;13.90;73.70;;;;;;5096681;28;20193;-77
2023/04/27 11:52:21;;;;;;;11.68;5.85;;;13.90;74.60;;;;;;5100184;28;20264;-81
2023/04/27 11:54:54;;;;;;;11.43;6.60;;;13.80;74.20;;;;;;5121296;27;20188;-80
2023/04/27 11:57:31;;;;;;;8.80;5.82;;;13.70;74.70;;;;;;5117294;27;20187;-80
2023/04/27 11:59:59;;;;;;;10.55;5.57;;;13.70;75.10;;;;;;5116479;28;20181;-80
2023/04/27 12:02:26;;;;;;;10.30;5.22;;;13.60;75.50;;;;;;5115214;28;20189;-81
2023/04/27 12:04:52;;;;;;;9.43;5.57;;;13.50;76.30;;;;;;5116715;28;20209;-81
2023/04/27 12:07:18;;;;;;;10.73;5.53;;;13.40;77.20;;;;;;5114512;28;20221;-81
2023/04/27 12:09:44;;;;;;;8.27;5.07;;;13.30;79.10;;;;;;5115169;28;20219;-80
2023/04/27 12:12:17;;;;;;;10.15;5.25;;;13.30;82.70;;;;;;5107158;27;20200;-80
2023/04/27 12:14:44;;;;;;;11.98;5.35;;;13.20;85.00;;;;;;5136024;27;20188;-84
2023/04/27 12:17:09;;;;;;;8.10;4.82;;;13.00;88.10;;;;;;5124574;27;20177;-81
2023/04/27 12:19:36;;;;;;;9.25;5.13;;;12.90;90.10;;;;;;5116655;28;20645;-81
2023/04/27 12:22:02;;;;;;;12.15;5.38;;;12.80;91.00;;;;;;5115294;28;20182;-81
2023/04/27 12:24:28;;;;;;;14.15;5.68;;;12.70;92.10;;;;;;5115183;28;20177;-79
2023/04/27 12:26:54;;;;;;;11.80;5.30;;;12.70;93.00;;;;;;5115463;28;20265;-80
2023/04/27 12:29:20;;;;;;;9.75;5.22;;;12.50;94.20;;;;;;5098992;28;20694;-79
2023/04/27 12:31:46;;;;;;;10.18;5.60;;;12.50;94.50;;;;;;5113549;28;20216;-83
2023/04/27 12:34:11;;;;;;;8.85;5.25;;;12.50;95.00;;;;;;5095706;28;20174;-81
2023/04/27 12:36:37;;;;;;;8.68;4.72;;;12.60;95.70;;;;;;5094591;28;20202;-82
2023/04/27 12:39:15;;;;;;;8.90;5.28;;;12.60;96.50;;;;;;5109931;28;20177;-81
2023/04/27 12:41:42;;;;;;;9.18;4.55;;;12.80;96.80;;;;;;5111131;28;20631;-81
2023/04/27 12:44:08;;;;;;;9.52;4.53;;;12.80;97.00;;;;;;5097459;28;20225;-80
2023/04/27 12:46:34;;;;;;;8.38;4.68;;;12.90;97.10;;;;;;5110313;27;20656;-79
2023/04/27 12:49:00;;;;;;;10.98;4.43;;;12.90;97.10;;;;;;5119974;27;20213;-80